Time;durP1;ratioP1;P1;durP2;ratioP2;P2;SDS_P1;SDS_P2;PMS_P1;PMS_P2;Temp;Humidity;BMP_temperature;BMP_pressure;BME280_temperature;BME280_humidity;BME280_pressure;Samples;Min_cycle;Max_cycle;Signal;HPM_P1;HPM_P2
2023/04/28 00:01:55;;;;;;;;;;;8.30;99.90;;;;;;4989770;28;19921;-73
2023/04/28 00:04:21;;;;;;;;;;;8.30;99.90;;;;;;4983932;28;19920;-73
2023/04/28 00:06:47;;;;;;;;;;;8.20;99.90;;;;;;4996411;28;19941;-73
2023/04/28 00:09:12;;;;;;;;;;;8.20;99.90;;;;;;5002222;28;19948;-74
2023/04/28 00:11:38;;;;;;;;;;;8.20;99.90;;;;;;4986903;28;19905;-74
2023/04/28 00:14:04;;;;;;;;;;;8.20;99.90;;;;;;4978879;28;20337;-74
2023/04/28 00:16:29;;;;;;;;;;;8.10;99.90;;;;;;5000237;28;19945;-74
2023/04/28 00:18:56;;;;;;;;;;;8.10;99.90;;;;;;4987610;28;19910;-73
2023/04/28 00:21:27;;;;;;;;;;;8.10;99.90;;;;;;4984065;28;19925;-74
2023/04/28 00:23:54;;;;;;;;;;;8.10;99.90;;;;;;5005747;28;19963;-73
2023/04/28 00:26:19;;;;;;;;;;;8.10;99.90;;;;;;4999823;28;20004;-73
2023/04/28 00:28:45;;;;;;;;;;;8.10;99.90;;;;;;4985649;28;20341;-74
2023/04/28 00:31:11;;;;;;;;;;;8.10;99.90;;;;;;4988459;28;19914;-74
2023/04/28 00:33:39;;;;;;;;;;;8.00;99.90;;;;;;5002917;28;20449;-73
2023/04/28 00:36:05;;;;;;;;;;;8.00;99.90;;;;;;4999382;28;19963;-73
2023/04/28 00:38:30;;;;;;;;;;;8.00;99.90;;;;;;4981686;28;19913;-73
2023/04/28 00:41:01;;;;;;;;;;;8.10;99.90;;;;;;5000814;28;19917;-74
2023/04/28 00:43:27;;;;;;;;;;;8.00;99.90;;;;;;5000335;28;19912;-73
2023/04/28 00:45:53;;;;;;;;;;;8.10;99.90;;;;;;4983418;28;19912;-73
2023/04/28 00:48:24;;;;;;;;;;;8.10;99.90;;;;;;4985067;28;19914;-73
2023/04/28 00:50:55;;;;;;;;;;;8.10;99.90;;;;;;5001452;28;20037;-74
2023/04/28 00:53:21;;;;;;;;;;;8.10;99.90;;;;;;5004157;28;19999;-73
2023/04/28 00:55:46;;;;;;;;;;;8.10;99.90;;;;;;5000067;28;19975;-74
2023/04/28 00:58:12;;;;;;;;;;;8.10;99.90;;;;;;5005629;28;19916;-73
2023/04/28 01:00:39;;;;;;;;;;;8.00;99.90;;;;;;4983813;28;19905;-74
2023/04/28 01:03:06;;;;;;;;;;;8.00;99.90;;;;;;5004697;28;19913;-73
2023/04/28 01:05:32;;;;;;;;;;;7.90;99.90;;;;;;4999804;28;20362;-74
2023/04/28 01:08:00;;;;;;;;;;;7.90;99.90;;;;;;4983624;28;19905;-73
2023/04/28 01:10:27;;;;;;;;;;;7.90;99.90;;;;;;5002567;28;19905;-74
2023/04/28 01:12:55;;;;;;;;;;;7.90;99.90;;;;;;4988571;28;19909;-73
2023/04/28 01:15:22;;;;;;;;;;;7.90;99.90;;;;;;5000294;28;19974;-74
2023/04/28 01:17:51;;;;;;;;;;;7.80;99.90;;;;;;4987536;28;20026;-73
2023/04/28 01:20:18;;;;;;;;;;;7.90;99.90;;;;;;5000655;28;19937;-74
2023/04/28 01:22:44;;;;;;;;;;;7.80;99.90;;;;;;4986499;28;20267;-73
2023/04/28 01:25:11;;;;;;;;;;;7.90;99.90;;;;;;4982111;28;19905;-74
2023/04/28 01:27:37;;;;;;;;;;;7.80;99.90;;;;;;5004664;28;20385;-73
2023/04/28 01:30:02;;;;;;;;;;;7.80;99.90;;;;;;5000531;28;19921;-74
2023/04/28 01:32:29;;;;;;;;;;;7.80;99.90;;;;;;4983290;28;20551;-73
2023/04/28 01:34:55;;;;;;;;;;;7.80;99.90;;;;;;5000565;28;19912;-74
2023/04/28 01:37:23;;;;;;;;;;;7.80;99.90;;;;;;5000324;28;19913;-74
2023/04/28 01:39:49;;;;;;;;;;;7.80;99.90;;;;;;4998439;28;20486;-74
2023/04/28 01:42:16;;;;;;;;;;;7.70;99.90;;;;;;4985052;28;19905;-74
2023/04/28 01:44:43;;;;;;;;;;;7.70;99.90;;;;;;5000535;28;19909;-74
2023/04/28 01:47:10;;;;;;;;;;;7.70;99.90;;;;;;4983503;28;19906;-74
2023/04/28 01:49:36;;;;;;;;;;;7.70;99.90;;;;;;4995937;28;19907;-74
2023/04/28 01:52:03;;;;;;;;;;;7.70;99.90;;;;;;4986712;28;19936;-73
2023/04/28 01:54:28;;;;;;;;;;;7.70;99.90;;;;;;4993636;28;19933;-73
2023/04/28 01:56:55;;;;;;;;;;;7.70;99.90;;;;;;4980360;28;19998;-73
2023/04/28 01:59:21;;;;;;;;;;;7.60;99.90;;;;;;4995098;28;20200;-73
2023/04/28 02:01:47;;;;;;;;;;;7.70;99.90;;;;;;4981905;28;19952;-73
2023/04/28 02:04:12;;;;;;;;;;;7.70;99.90;;;;;;4981976;28;19947;-73
2023/04/28 02:06:39;;;;;;;;;;;7.70;99.90;;;;;;4982243;28;19997;-73
2023/04/28 02:09:06;;;;;;;;;;;7.70;99.90;;;;;;5000107;28;20089;-74
2023/04/28 02:11:31;;;;;;;;;;;7.70;99.90;;;;;;4980129;28;20320;-73
2023/04/28 02:13:59;;;;;;;;;;;7.70;99.90;;;;;;4997050;28;19957;-73
2023/04/28 02:16:24;;;;;;;;;;;7.60;99.90;;;;;;4998109;28;19912;-74
2023/04/28 02:18:51;;;;;;;;;;;7.60;99.90;;;;;;4980954;28;19917;-73
2023/04/28 02:21:25;;;;;;;;;;;7.60;99.90;;;;;;4998882;28;19955;-74
2023/04/28 02:23:53;;;;;;;;;;;7.50;99.90;;;;;;4986128;28;20290;-74
2023/04/28 02:26:21;;;;;;;;;;;7.50;99.90;;;;;;4998712;28;19910;-73
2023/04/28 02:28:48;;;;;;;;;;;7.50;99.90;;;;;;4986134;28;19918;-74
2023/04/28 02:31:13;;;;;;;;;;;7.40;99.90;;;;;;4977275;28;20369;-74
2023/04/28 02:33:41;;;;;;;;;;;7.40;99.90;;;;;;4981452;28;19909;-73
2023/04/28 02:36:07;;;;;;;;;;;7.30;99.90;;;;;;4993407;28;20000;-74
2023/04/28 02:38:33;;;;;;;;;;;7.30;99.90;;;;;;4980596;28;19971;-73
2023/04/28 02:40:58;;;;;;;;;;;7.30;99.90;;;;;;4999397;28;19921;-73
2023/04/28 02:43:26;;;;;;;;;;;7.30;99.90;;;;;;4997971;28;19909;-73
2023/04/28 02:45:54;;;;;;;;;;;7.20;99.90;;;;;;4987123;28;19996;-74
2023/04/28 02:48:20;;;;;;;;;;;7.20;99.90;;;;;;4979363;28;19949;-74
2023/04/28 02:50:46;;;;;;;;;;;7.20;99.90;;;;;;4997884;28;19909;-73
2023/04/28 02:53:11;;;;;;;;;;;7.10;99.90;;;;;;4980572;28;19959;-73
2023/04/28 02:55:37;;;;;;;;;;;7.10;99.90;;;;;;4999545;28;20622;-73
2023/04/28 02:58:03;;;;;;;;;;;7.10;99.90;;;;;;4994157;28;19917;-73
2023/04/28 03:00:29;;;;;;;;;;;7.10;99.90;;;;;;4997377;28;19909;-73
2023/04/28 03:02:55;;;;;;;;;;;7.00;99.90;;;;;;5001971;28;19991;-73
2023/04/28 03:05:22;;;;;;;;;;;7.00;99.90;;;;;;4997258;28;19913;-73
2023/04/28 03:07:49;;;;;;;;;;;7.00;99.90;;;;;;5001070;28;19909;-73
2023/04/28 03:10:14;;;;;;;;;;;7.00;99.90;;;;;;4996024;28;19979;-73
2023/04/28 03:12:42;;;;;;;;;;;6.90;99.90;;;;;;4995897;28;20414;-73
2023/04/28 03:15:08;;;;;;;;;;;6.90;99.90;;;;;;4995618;28;19910;-74
2023/04/28 03:17:37;;;;;;;;;;;6.80;99.90;;;;;;4995544;28;19920;-73
2023/04/28 03:20:04;;;;;;;;;;;6.80;99.90;;;;;;4999922;28;19913;-73
2023/04/28 03:22:30;;;;;;;;;;;6.80;99.90;;;;;;4995810;28;19909;-74
2023/04/28 03:24:58;;;;;;;;;;;6.80;99.90;;;;;;4980491;28;20343;-73
2023/04/28 03:27:23;;;;;;;;;;;6.70;99.90;;;;;;4983164;28;19905;-73
2023/04/28 03:29:49;;;;;;;;;;;6.80;99.90;;;;;;5002459;28;20468;-74
2023/04/28 03:32:15;;;;;;;;;;;6.70;99.90;;;;;;4984938;28;19905;-73
2023/04/28 03:34:45;;;;;;;;;;;6.70;99.90;;;;;;5003035;28;19963;-74
2023/04/28 03:37:12;;;;;;;;;;;6.70;99.90;;;;;;4979952;28;19913;-73
2023/04/28 03:39:39;;;;;;;;;;;6.70;99.90;;;;;;5000018;28;19909;-73
2023/04/28 03:42:05;;;;;;;;;;;6.60;99.90;;;;;;5002709;28;19913;-73
2023/04/28 03:44:33;;;;;;;;;;;6.60;99.90;;;;;;4997781;28;19909;-73
2023/04/28 03:47:02;;;;;;;;;;;6.60;99.90;;;;;;4984009;28;20033;-73
2023/04/28 03:49:27;;;;;;;;;;;6.60;99.90;;;;;;4998306;28;20003;-73
2023/04/28 03:51:54;;;;;;;;;;;6.60;99.90;;;;;;4998546;28;20036;-73
2023/04/28 03:54:20;;;;;;;;;;;6.60;99.90;;;;;;5004182;28;19976;-74
2023/04/28 03:56:46;;;;;;;;;;;6.60;99.90;;;;;;4983940;28;19913;-73
2023/04/28 03:59:12;;;;;;;;;;;6.60;99.90;;;;;;5002698;28;19909;-73
2023/04/28 04:01:39;;;;;;;;;;;6.60;99.90;;;;;;5000696;28;19909;-73
2023/04/28 04:04:05;;;;;;;;;;;6.70;99.90;;;;;;4997618;28;20012;-73
2023/04/28 04:06:33;;;;;;;;;;;6.70;99.90;;;;;;4979981;28;19988;-74
2023/04/28 04:09:05;;;;;;;;;;;6.80;99.90;;;;;;4984557;28;19906;-73
2023/04/28 04:11:30;;;;;;;;;;;6.90;99.90;;;;;;4985350;28;19909;-74
2023/04/28 04:13:56;;;;;;;;;;;6.90;99.90;;;;;;5002193;28;19909;-74
2023/04/28 04:16:22;;;;;;;;;;;7.00;99.90;;;;;;4986809;28;19964;-74
2023/04/28 04:18:49;;;;;;;;;;;7.00;99.90;;;;;;4977246;28;19920;-75
2023/04/28 04:21:15;;;;;;;;;;;7.20;99.90;;;;;;5002143;28;19959;-72
2023/04/28 04:23:41;;;;;;;;;;;7.30;99.90;;;;;;4995686;28;20000;-73
2023/04/28 04:26:07;;;;;;;;;;;7.40;99.90;;;;;;4999687;28;20051;-73
2023/04/28 04:28:32;;;;;;;;;;;7.50;99.90;;;;;;4995610;28;20824;-72
2023/04/28 04:30:58;;;;;;;;;;;7.70;99.90;;;;;;4995511;28;19913;-72
2023/04/28 04:33:24;;;;;;;;;;;7.80;99.90;;;;;;4978863;28;19913;-72
2023/04/28 04:35:50;;;;;;;;;;;7.90;99.90;;;;;;4994818;28;19913;-72
2023/04/28 04:38:15;;;;;;;;;;;8.00;99.90;;;;;;4999198;28;19971;-72
2023/04/28 04:40:41;;;;;;;;;;;8.10;99.90;;;;;;4999955;28;19944;-72
2023/04/28 04:43:07;;;;;;;;;;;8.20;99.90;;;;;;4982890;28;20457;-72
2023/04/28 04:45:32;;;;;;;;;;;8.40;99.90;;;;;;5000152;28;21512;-73
2023/04/28 04:47:59;;;;;;;;;;;8.60;99.90;;;;;;4999155;28;19906;-72
2023/04/28 04:50:25;;;;;;;;;;;8.80;99.90;;;;;;5003688;28;19910;-72
2023/04/28 04:52:50;;;;;;;;;;;9.10;99.90;;;;;;4983495;28;19914;-72
2023/04/28 04:55:16;;;;;;;;;;;9.30;99.90;;;;;;4979301;28;20271;-73
2023/04/28 04:57:41;;;;;;;;;;;9.50;99.90;;;;;;4982996;28;19917;-72
2023/04/28 05:00:08;;;;;;;;;;;9.40;99.90;;;;;;4997776;28;19952;-72
2023/04/28 05:02:34;;;;;;;;;;;9.20;99.90;;;;;;4981545;28;19913;-72
2023/04/28 05:04:59;;;;;;;;;;;9.10;99.90;;;;;;4979762;28;19916;-71
2023/04/28 05:07:25;;;;;;;;;;;9.10;99.90;;;;;;4998549;28;20315;-72
2023/04/28 05:09:51;;;;;;;;;;;9.20;99.90;;;;;;4980709;28;19980;-72
2023/04/28 05:12:16;;;;;;;;;;;9.20;99.90;;;;;;4982072;28;19956;-72
2023/04/28 05:14:42;;;;;;;;;;;9.20;99.90;;;;;;4983858;28;19909;-72
2023/04/28 05:17:07;;;;;;;;;;;9.10;99.90;;;;;;4982432;28;20586;-73
2023/04/28 05:19:33;;;;;;;;;;;9.10;99.90;;;;;;4980665;28;20480;-72
2023/04/28 05:21:59;;;;;;;;;;;9.10;99.90;;;;;;5004016;28;19928;-72
2023/04/28 05:24:25;;;;;;;;;;;9.00;99.90;;;;;;4988200;28;20497;-72
2023/04/28 05:26:51;;;;;;;;;;;9.20;99.90;;;;;;4986080;28;19913;-72
2023/04/28 05:29:17;;;;;;;;;;;9.40;99.90;;;;;;5000233;28;19913;-72
2023/04/28 05:31:42;;;;;;;;;;;9.80;99.90;;;;;;4984824;28;19944;-74
2023/04/28 05:34:09;;;;;;;;;;;9.90;99.90;;;;;;4998170;28;19996;-73
2023/04/28 05:36:36;;;;;;;;;;;10.00;99.90;;;;;;4983822;28;20510;-72
2023/04/28 05:39:02;;;;;;;;;;;10.30;99.90;;;;;;4975888;28;19913;-72
2023/04/28 05:41:28;;;;;;;;;;;10.70;99.90;;;;;;4986222;28;20421;-74
2023/04/28 05:43:54;;;;;;;;;;;11.10;99.90;;;;;;4981237;28;19959;-73
2023/04/28 05:46:20;;;;;;;;;;;11.40;99.90;;;;;;4981461;28;19905;-74
2023/04/28 05:48:45;;;;;;;;;;;11.70;99.90;;;;;;4981108;28;19960;-73
2023/04/28 05:51:13;;;;;;;;;;;12.20;99.60;;;;;;4995347;28;19936;-75
2023/04/28 05:53:39;;;;;;;;;;;12.80;98.30;;;;;;4979700;28;19993;-71
2023/04/28 05:56:04;;;;;;;;;;;13.30;97.50;;;;;;4995382;28;20004;-71
2023/04/28 05:58:30;;;;;;;;;;;14.40;95.20;;;;;;4985813;28;19959;-71
2023/04/28 06:00:57;;;;;;;;;;;15.20;92.60;;;;;;4982575;28;19909;-71
2023/04/28 06:03:22;;;;;;;;;;;15.60;91.60;;;;;;4980607;28;19999;-71
2023/04/28 06:41:59;;;;;;;;;;;20.60;64.00;;;;;;4976092;28;19957;-87
2023/04/28 06:44:24;;;;;;;;;;;20.60;63.40;;;;;;4964321;28;19906;-86
2023/04/28 06:46:51;;;;;;;;;;;21.60;61.90;;;;;;4957033;28;19913;-90
2023/04/28 06:57:19;;;;;;;;;;;18.30;64.70;;;;;;5021893;23;19925;-81
2023/04/28 06:59:55;;;;;;;;;;;17.40;67.20;;;;;;4980087;28;20020;-81
2023/04/28 07:02:35;;;;;;;;;;;17.20;68.50;;;;;;4996477;28;20012;-81
2023/04/28 07:05:02;;;;;;;;;;;17.40;69.20;;;;;;4980893;28;19905;-82
2023/04/28 07:07:31;;;;;;;;;;;17.00;68.90;;;;;;4989202;28;19916;-82
2023/04/28 07:10:05;;;;;;;;;;;16.60;71.00;;;;;;4986556;28;19906;-83
2023/04/28 07:12:31;;;;;;;;;;;16.70;70.80;;;;;;5010225;28;19929;-84
2023/04/28 07:14:56;;;;;;;;;;;17.60;71.10;;;;;;5017049;28;19910;-85
2023/04/28 07:17:22;;;;;;;;;;;18.60;69.10;;;;;;5005774;28;19921;-83
2023/04/28 07:19:50;;;;;;;;;;;20.20;65.60;;;;;;4983113;28;19947;-87
2023/04/28 07:22:28;;;;;;;;;;;20.90;63.50;;;;;;4982953;28;20535;-89
2023/04/28 07:25:05;;;;;;;;;;;22.70;60.70;;;;;;4993038;28;19905;-90
2023/04/28 07:30:41;;;;;;;;;;;24.00;55.20;;;;;;5020706;28;19904;-83
2023/04/28 07:33:06;;;;;;;;;;;24.30;54.10;;;;;;5000207;28;20347;-89
2023/04/28 07:35:37;;;;;;;;;;;25.20;53.30;;;;;;4985116;28;19909;-88
2023/04/28 07:38:13;;;;;;;;;;;25.80;51.70;;;;;;5004963;28;19917;-87
2023/04/28 07:40:43;;;;;;;;;;;25.60;51.00;;;;;;5007718;28;19951;-84
2023/04/28 07:43:09;;;;;;;;;;;25.50;51.00;;;;;;4985390;28;19905;-89
2023/04/28 07:45:58;;;;;;;;;;;25.80;50.60;;;;;;5017175;28;19913;-82
2023/04/28 07:48:38;;;;;;;;;;;24.80;50.60;;;;;;5023477;28;19902;-83
2023/04/28 07:51:21;;;;;;;;;;;24.60;51.40;;;;;;5016403;28;19894;-84
2023/04/28 07:53:50;;;;;;;;;;;24.40;51.80;;;;;;5033437;28;19917;-84
2023/04/28 07:56:25;;;;;;;;;;;24.10;52.80;;;;;;5016854;28;19917;-89
2023/04/28 07:58:52;;;;;;;;;;;24.70;51.80;;;;;;4981191;28;20373;-85
2023/04/28 08:01:23;;;;;;;;;;;25.50;51.00;;;;;;4987081;28;20012;-88
2023/04/28 08:03:53;;;;;;;;;;;25.00;50.90;;;;;;5001576;28;19910;-87
2023/04/28 08:06:19;;;;;;;;;;;26.50;50.10;;;;;;4986198;28;19914;-89
2023/04/28 08:09:04;;;;;;;;;;;24.90;50.90;;;;;;4987018;28;19913;-88
2023/04/28 08:17:00;;;;;;;;;;;20.70;56.70;;;;;;5085492;23;19913;-83
2023/04/28 08:25:49;;;;;;;;;;;22.90;55.50;;;;;;5002906;28;20446;-89
2023/04/28 08:31:17;;;;;;;;;;;22.80;53.50;;;;;;5006723;28;19912;-89
2023/04/28 08:44:11;;;;;;;;;;;23.20;54.00;;;;;;5466451;23;19921;-89
2023/04/28 08:49:37;;;;;;;;;;;24.70;52.10;;;;;;5136121;23;19925;-90
2023/04/28 08:52:04;;;;;;;;;;;25.10;51.50;;;;;;4996663;28;19960;-91
2023/04/28 08:54:34;;;;;;;;;;;25.20;51.10;;;;;;4983469;28;20355;-91
2023/04/28 08:57:10;;;;;;;;;;;24.80;50.90;;;;;;4998680;28;19909;-88
2023/04/28 09:05:21;;;;;;;;;;;22.40;54.20;;;;;;5386587;23;19922;-81
2023/04/28 09:07:56;;;;;;;;;;;21.40;56.60;;;;;;5012683;28;19967;-82
2023/04/28 09:10:25;;;;;;;;;;;21.50;56.30;;;;;;5013134;28;19912;-82
2023/04/28 09:12:59;;;;;;;;;;;21.60;56.30;;;;;;5017844;28;19913;-82
2023/04/28 09:15:31;;;;;;;;;;;20.20;58.30;;;;;;4991986;28;19909;-82
2023/04/28 09:26:12;;;;;;;;;;;20.50;59.10;;;;;;5638198;23;19928;-83
2023/04/28 09:28:44;;;;;;;;;;;20.50;59.80;;;;;;5025372;28;19968;-83
2023/04/28 09:31:23;;;;;;;;;;;21.70;58.20;;;;;;5036640;28;19913;-83
2023/04/28 09:34:11;;;;;;;;;;;21.80;57.30;;;;;;5010215;28;19914;-82
2023/04/28 09:39:29;;;;;;;;;;;23.00;56.50;;;;;;5309289;23;19925;-82
2023/04/28 09:41:54;;;;;;;;;;;24.80;54.20;;;;;;4994387;28;19937;-83
2023/04/28 09:44:20;;;;;;;;;;;24.40;53.60;;;;;;4997656;28;20003;-81
2023/04/28 09:46:47;;;;;;;;;;;25.80;52.10;;;;;;4983784;28;20020;-81
2023/04/28 09:49:13;;;;;;;;;;;26.30;52.00;;;;;;4998151;28;19913;-82
2023/04/28 09:51:45;;;;;;;;;;;27.20;51.00;;;;;;4980791;28;19910;-83
2023/04/28 09:54:11;;;;;;;;;;;26.20;50.80;;;;;;4998997;28;19909;-80
2023/04/28 09:56:49;;;;;;;;;;;25.60;51.60;;;;;;4999522;28;19896;-85
2023/04/28 09:59:14;;;;;;;;;;;25.30;52.10;;;;;;4996971;28;19909;-82
2023/04/28 10:01:44;;;;;;;;;;;25.60;52.30;;;;;;4999588;28;19909;-82
2023/04/28 10:04:12;;;;;;;;;;;24.90;53.30;;;;;;5000048;28;20364;-80
2023/04/28 10:06:44;;;;;;;;;;;24.30;52.70;;;;;;5002651;28;20357;-85
2023/04/28 10:09:11;;;;;;;;;;;24.40;52.80;;;;;;4999252;28;19916;-82
2023/04/28 10:11:56;;;;;;;;;;;24.90;52.60;;;;;;4996179;28;20445;-82
2023/04/28 10:14:30;;;;;;;;;;;24.00;53.30;;;;;;5011356;28;19897;-83
2023/04/28 10:17:02;;;;;;;;;;;23.70;54.60;;;;;;5001791;28;19952;-83
2023/04/28 10:19:33;;;;;;;;;;;23.30;54.40;;;;;;5006428;28;19964;-84
2023/04/28 10:22:14;;;;;;;;;;;23.80;54.30;;;;;;5004830;28;20007;-74
2023/04/28 10:25:07;;;;;;;;;;;23.90;54.40;;;;;;4982800;28;19963;-74
2023/04/28 10:27:33;;;;;;;;;;;24.20;53.90;;;;;;4971895;28;20363;-72
2023/04/28 10:30:15;;;;;;;;;;;24.20;53.70;;;;;;4982227;28;20000;-72
2023/04/28 10:32:40;;;;;;;;;;;24.10;54.20;;;;;;4992031;28;20422;-72
2023/04/28 10:35:22;;;;;;;;;;;24.10;53.50;;;;;;4993831;28;20047;-73
2023/04/28 10:38:09;;;;;;;;;;;23.80;53.90;;;;;;4997446;28;19914;-72
2023/04/28 10:40:36;;;;;;;;;;;23.10;55.10;;;;;;4995406;28;20470;-72
2023/04/28 10:43:02;;;;;;;;;;;22.80;56.50;;;;;;5000955;28;19960;-72
2023/04/28 10:45:46;;;;;;;;;;;23.30;55.50;;;;;;4996200;28;19909;-72
2023/04/28 10:48:16;;;;;;;;;;;22.50;55.70;;;;;;4998454;28;19909;-81
2023/04/28 10:51:00;;;;;;;;;;;22.20;57.00;;;;;;4986541;28;19964;-72
2023/04/28 10:53:49;;;;;;;;;;;21.70;57.00;;;;;;4996600;28;19912;-72
2023/04/28 10:56:25;;;;;;;;;;;22.50;57.30;;;;;;4984213;28;19920;-72
2023/04/28 10:58:51;;;;;;;;;;;22.50;56.70;;;;;;4996049;28;19921;-72
2023/04/28 11:01:23;;;;;;;;;;;23.00;56.30;;;;;;4979275;28;19929;-72
2023/04/28 11:03:52;;;;;;;;;;;22.50;56.30;;;;;;4995004;28;19953;-71
2023/04/28 11:06:27;;;;;;;;;;;22.00;57.40;;;;;;4977416;28;20457;-72
2023/04/28 11:08:54;;;;;;;;;;;22.90;56.40;;;;;;4989354;28;19992;-73
2023/04/28 11:11:24;;;;;;;;;;;22.80;56.50;;;;;;4986054;28;19913;-73
2023/04/28 11:13:50;;;;;;;;;;;22.20;57.20;;;;;;4996889;28;20670;-75
2023/04/28 11:16:21;;;;;;;;;;;21.90;57.50;;;;;;4986064;28;19905;-75
2023/04/28 11:18:47;;;;;;;;;;;21.30;58.10;;;;;;5002464;28;19913;-75
2023/04/28 11:21:19;;;;;;;;;;;21.50;58.60;;;;;;4987582;28;19906;-75
2023/04/28 11:23:46;;;;;;;;;;;21.40;58.60;;;;;;4994812;28;19906;-72
2023/04/28 11:26:13;;;;;;;;;;;21.50;59.00;;;;;;4983291;28;20583;-77
2023/04/28 11:28:56;;;;;;;;;;;21.40;58.90;;;;;;4997636;28;19913;-75
2023/04/28 11:31:23;;;;;;;;;;;21.00;58.90;;;;;;4996603;28;19945;-73
2023/04/28 11:33:55;;;;;;;;;;;21.30;59.50;;;;;;4980490;28;19910;-74
2023/04/28 11:36:35;;;;;;;;;;;21.20;59.00;;;;;;5002882;28;19940;-76
2023/04/28 11:39:07;;;;;;;;;;;21.20;59.30;;;;;;5001651;28;20262;-76
2023/04/28 11:41:37;;;;;;;;;;;21.30;59.10;;;;;;4984413;28;19913;-77
2023/04/28 11:44:13;;;;;;;;;;;21.60;59.20;;;;;;4979754;28;19916;-76
2023/04/28 11:47:02;;;;;;;;;;;21.80;59.40;;;;;;4981321;28;19917;-76
2023/04/28 11:49:37;;;;;;;;;;;21.50;58.20;;;;;;5000348;28;19917;-78
2023/04/28 11:52:07;;;;;;;;;;;20.50;59.70;;;;;;4988633;28;19939;-76
2023/04/28 11:54:36;;;;;;;;;;;20.20;61.00;;;;;;4986535;28;19920;-77
2023/04/28 11:57:16;;;;;;;;;;;20.20;61.10;;;;;;4978887;28;19940;-76
2023/04/28 11:59:42;;;;;;;;;;;20.10;60.80;;;;;;4989328;28;19958;-77
2023/04/28 12:02:10;;;;;;;;;;;20.10;61.10;;;;;;4985069;28;19960;-76
2023/04/28 12:04:37;;;;;;;;;;;20.10;61.80;;;;;;5001602;28;19996;-76
2023/04/28 12:07:09;;;;;;;;;;;19.90;61.80;;;;;;4986655;28;20018;-77
2023/04/28 12:09:37;;;;;;;;;;;20.00;62.10;;;;;;5000525;28;20013;-76
2023/04/28 12:12:04;;;;;;;;;;;20.10;61.50;;;;;;4984910;28;19914;-76
2023/04/28 12:14:52;;;;;;;;;;;20.40;61.90;;;;;;4983074;28;19952;-76
2023/04/28 12:17:31;;;;;;;;;;;20.40;60.90;;;;;;4983331;28;20008;-76
2023/04/28 12:20:03;;;;;;;;;;;20.50;60.70;;;;;;4978833;28;19948;-77
2023/04/28 12:22:41;;;;;;;;;;;19.70;62.80;;;;;;5000642;28;20381;-76
2023/04/28 12:25:08;;;;;;;;;;;19.80;63.20;;;;;;5000996;28;20088;-76
2023/04/28 12:27:35;;;;;;;;;;;19.90;62.70;;;;;;5001901;28;19952;-76
2023/04/28 12:30:05;;;;;;;;;;;19.70;62.70;;;;;;5002045;28;19940;-77
2023/04/28 12:32:38;;;;;;;;;;;19.80;62.60;;;;;;5001395;28;19912;-77
2023/04/28 12:35:04;;;;;;;;;;;19.50;63.40;;;;;;4999955;28;20301;-76
2023/04/28 12:37:32;;;;;;;;;;;19.50;64.20;;;;;;5006100;28;19913;-77
2023/04/28 12:39:58;;;;;;;;;;;19.50;62.80;;;;;;4990590;28;20354;-76
2023/04/28 12:42:23;;;;;;;;;;;19.30;63.00;;;;;;5005589;28;19916;-76
2023/04/28 12:44:56;;;;;;;;;;;19.10;62.90;;;;;;4998536;28;19909;-77
2023/04/28 12:47:22;;;;;;;;;;;18.70;63.80;;;;;;4986042;28;19916;-77
2023/04/28 12:49:51;;;;;;;;;;;18.70;64.20;;;;;;4980431;28;20414;-76
2023/04/28 12:52:22;;;;;;;;;;;18.70;63.70;;;;;;5001400;28;20332;-76
2023/04/28 12:54:54;;;;;;;;;;;18.50;64.70;;;;;;4990403;28;20776;-76
2023/04/28 12:57:30;;;;;;;;;;;18.60;65.10;;;;;;5005354;28;19917;-76
2023/04/28 13:00:03;;;;;;;;;;;18.30;65.20;;;;;;4992646;28;19909;-76
2023/04/28 13:02:46;;;;;;;;;;;18.30;65.40;;;;;;4999324;28;19916;-77
2023/04/28 13:05:13;;;;;;;;;;;18.20;65.80;;;;;;4999308;28;19960;-77
2023/04/28 13:07:49;;;;;;;;;;;18.00;66.20;;;;;;4999744;28;19905;-76
2023/04/28 13:10:15;;;;;;;;;;;18.00;65.90;;;;;;4981997;28;20561;-77
2023/04/28 13:12:50;;;;;;;;;;;17.90;65.80;;;;;;4982071;28;20083;-77
2023/04/28 13:15:17;;;;;;;;;;;17.80;66.30;;;;;;4999917;28;19905;-76
2023/04/28 13:17:47;;;;;;;;;;;17.90;67.00;;;;;;4987726;28;19905;-77
2023/04/28 13:20:12;;;;;;;;;;;17.90;66.70;;;;;;5001378;28;19917;-76
2023/04/28 13:22:40;;;;;;;;;;;17.90;66.70;;;;;;4981302;28;19964;-76
2023/04/28 13:25:06;;;;;;;;;;;17.70;67.30;;;;;;4981113;28;20011;-77
2023/04/28 13:27:34;;;;;;;;;;;17.50;67.30;;;;;;4995136;28;19945;-77
2023/04/28 13:30:04;;;;;;;;;;;17.40;68.60;;;;;;4983161;28;20314;-76
2023/04/28 13:32:30;;;;;;;;;;;17.40;68.60;;;;;;4978905;28;19906;-77
2023/04/28 13:35:04;;;;;;;;;;;17.40;68.80;;;;;;5000237;28;19909;-77
2023/04/28 13:37:44;;;;;;;;;;;17.40;69.00;;;;;;5000513;28;19906;-76
2023/04/28 13:40:11;;;;;;;;;;;17.40;69.10;;;;;;4997619;28;19928;-77
2023/04/28 13:42:37;;;;;;;;;;;17.40;69.10;;;;;;4981111;28;20259;-76
2023/04/28 13:45:04;;;;;;;;;;;17.40;69.00;;;;;;4998784;28;19914;-76
2023/04/28 13:47:31;;;;;;;;;;;17.20;70.00;;;;;;4978476;28;19917;-76
2023/04/28 13:49:59;;;;;;;;;;;17.20;71.00;;;;;;4984100;28;19916;-76
2023/04/28 13:52:25;;;;;;;;;;;17.20;70.50;;;;;;5002706;28;19909;-77
2023/04/28 13:54:50;;;;;;;;;;;17.00;70.30;;;;;;4978180;28;20358;-77
2023/04/28 13:57:20;;;;;;;;;;;17.10;70.70;;;;;;4987809;28;19912;-76
2023/04/28 13:59:46;;;;;;;;;;;17.20;71.00;;;;;;5000725;28;19910;-76
2023/04/28 14:02:12;;;;;;;;;;;17.10;70.70;;;;;;4983469;28;19979;-76
2023/04/28 14:04:39;;;;;;;;;;;17.30;70.80;;;;;;4995622;28;20346;-76
2023/04/28 14:07:06;;;;;;;;;;;17.30;70.50;;;;;;4997957;28;20098;-82
2023/04/28 14:09:32;;;;;;;;;;;17.20;70.90;;;;;;4972550;28;19913;-73
2023/04/28 14:11:58;;;;;;;;;;;17.20;71.40;;;;;;4997685;28;19912;-78
2023/04/28 14:14:25;;;;;;;;;;;17.20;72.90;;;;;;4978845;28;19906;-77
2023/04/28 14:16:51;;;;;;;;;;;17.10;72.00;;;;;;4978274;28;19956;-78
2023/04/28 14:19:18;;;;;;;;;;;16.90;73.30;;;;;;4984888;28;19949;-77
2023/04/28 14:21:44;;;;;;;;;;;16.70;73.90;;;;;;4980569;28;20019;-79
2023/04/28 14:24:10;;;;;;;;;;;16.70;76.20;;;;;;4997351;28;20528;-78
2023/04/28 14:26:35;;;;;;;;;;;16.70;78.60;;;;;;4981756;28;19913;-77
2023/04/28 14:29:04;;;;;;;;;;;16.60;77.60;;;;;;4981097;28;19913;-78
2023/04/28 14:31:32;;;;;;;;;;;16.40;78.50;;;;;;4980434;28;19905;-78
2023/04/28 14:33:59;;;;;;;;;;;16.40;79.70;;;;;;4993185;28;19910;-78
2023/04/28 14:36:26;;;;;;;;;;;16.20;82.50;;;;;;4999077;28;19992;-77
2023/04/28 14:38:51;;;;;;;;;;;16.00;84.00;;;;;;4998895;28;20418;-78
2023/04/28 14:41:18;;;;;;;;;;;15.90;90.80;;;;;;4978796;28;19945;-78
2023/04/28 14:43:46;;;;;;;;;;;15.80;93.00;;;;;;4976740;28;19998;-78
2023/04/28 14:46:21;;;;;;;;;;;15.70;95.20;;;;;;4995253;28;19913;-78
2023/04/28 14:48:49;;;;;;;;;;;15.70;99.60;;;;;;4977273;28;19909;-78
2023/04/28 14:51:14;;;;;;;;;;;15.50;99.90;;;;;;4999981;28;19916;-79
2023/04/28 14:53:41;;;;;;;;;;;15.40;99.90;;;;;;4992676;28;20406;-77
2023/04/28 14:56:08;;;;;;;;;;;15.10;99.90;;;;;;4980146;28;20574;-78
2023/04/28 14:58:37;;;;;;;;;;;14.90;99.90;;;;;;4993289;28;19952;-78
2023/04/28 15:01:05;;;;;;;;;;;14.80;99.90;;;;;;4981202;28;20408;-78
2023/04/28 15:03:32;;;;;;;;;;;14.60;99.90;;;;;;4996073;28;19905;-78
2023/04/28 15:05:58;;;;;;;;;;;14.60;99.90;;;;;;4980855;28;19905;-79
2023/04/28 15:08:26;;;;;;;;;;;14.70;99.90;;;;;;4980938;28;19920;-78
2023/04/28 15:10:56;;;;;;;;;;;14.70;99.90;;;;;;4976139;28;19909;-78
2023/04/28 15:13:27;;;;;;;;;;;14.80;99.90;;;;;;4983035;28;20048;-77
2023/04/28 15:15:54;;;;;;;;;;;14.90;99.90;;;;;;4975777;28;20368;-77
2023/04/28 15:18:21;;;;;;;;;;;15.00;99.90;;;;;;4985005;28;20716;-77
2023/04/28 15:20:48;;;;;;;;;;;15.20;99.90;;;;;;4999824;28;20278;-77
2023/04/28 15:23:13;;;;;;;;;;;15.30;99.90;;;;;;4996763;28;19905;-78
2023/04/28 15:25:40;;;;;;;;;;;15.40;99.90;;;;;;4998820;28;19921;-77
2023/04/28 15:28:11;;;;;;;;;;;15.30;99.90;;;;;;4992705;28;19917;-78
2023/04/28 15:30:37;;;;;;;;;;;15.30;99.90;;;;;;4981850;28;19916;-76
2023/04/28 15:33:15;;;;;;;;;;;15.30;99.90;;;;;;4982149;28;19914;-77
2023/04/28 15:35:42;;;;;;;;;;;15.30;99.90;;;;;;5000571;28;19975;-78
2023/04/28 15:38:09;;;;;;;;;;;15.30;99.90;;;;;;4976962;28;19913;-78
2023/04/28 15:40:43;;;;;;;;;;;15.30;99.90;;;;;;4982368;28;20013;-77
2023/04/28 15:43:09;;;;;;;;;;;15.30;99.90;;;;;;4996553;28;19994;-78
2023/04/28 15:45:39;;;;;;;;;;;15.10;99.90;;;;;;4981694;28;19998;-78
2023/04/28 15:48:16;;;;;;;;;;;14.80;99.90;;;;;;4998039;28;19913;-77
2023/04/28 15:50:45;;;;;;;;;;;14.50;99.90;;;;;;4985522;28;19909;-79
2023/04/28 15:53:12;;;;;;;;;;;14.30;99.90;;;;;;4992548;28;19916;-78
2023/04/28 15:55:39;;;;;;;;;;;14.10;99.90;;;;;;4979944;28;19905;-78
2023/04/28 15:58:09;;;;;;;;;;;14.00;99.90;;;;;;4979604;28;19980;-78
2023/04/28 16:00:36;;;;;;;;;;;13.90;99.90;;;;;;5000271;28;20302;-77
2023/04/28 16:03:03;;;;;;;;;;;13.90;99.90;;;;;;4975640;28;19909;-77